Sonic Adventure (DX): Boss Rankings

Records: Times | Rings | Scores | Races | Bosses | Freestyle
Leaders: Times | Rings | Scores | Races | Bosses | Freestyle | Overall
Rank Player Percent Points Date
1 Sonicspeedruner 98.7% 26 03-24-15
2 Gamepro011 96.9% 61 03-24-15
3 Austinf 93.4% 133 03-24-15
4 DarkPolarNight 92.4% 152 03-24-15
5 Jawzun 90.6% 189 03-24-15
6 Parax 88.8% 226 03-24-15
7 ike6252 88.5% 232 03-24-15
8 Dashjump 86.4% 274 03-24-15
9 Avento128bits 85.9% 285 03-24-15
10 DarkspinesSonic 82.8% 346 03-24-15
11 Coolfansonic 81.0% 383 03-24-15
12 THC98 79.6% 411 03-24-15
13 F-Man 78.3% 437 03-24-15
14 TheRealShadnic 78.1% 443 03-24-15
15 Marth 77.5% 454 03-24-15
16 yoshifan 75.8% 488 03-24-15
17 PfoSonic 74.2% 521 03-24-15
18 InferSaime 73.8% 530 03-24-15
19 HyperSonic7701 72.1% 564 03-24-15
20 RPGnutter 71.2% 582 03-24-15
21 Paragod 69.7% 612 03-24-15
22 frankoredstrato 69.0% 626 03-24-15
22 mike89 69.0% 626 03-24-15
24 drminus 65.7% 693 03-24-15
25 Groudon199 64.6% 716 03-24-15
26 sonicam 64.4% 719 03-24-15
27 SadisticMystic 63.7% 733 03-24-15
28 Stefan 62.5% 758 03-24-15
29 Diamond 61.3% 782 03-24-15
30 Combo 58.6% 837 03-24-15
31 bertin 58.4% 840 03-24-15
32 xXMegaManXx 56.6% 876 03-24-15
33 SkyLights 56.0% 890 03-24-15
34 Dawid8404 52.0% 970 03-24-15
35 Fr3nZy 50.5% 1001 03-24-15
36 francisco 50.1% 1008 03-24-15
37 OmegaDJ 47.8% 1056 03-24-15
38 Arch 46.4% 1083 03-24-15
39 P1 Pause 45.2% 1107 03-24-15
40 Omega Rafael Santos 44.4% 1124 03-24-15
41 Andrea Ritsu 42.8% 1157 03-24-15
42 magnum12 42.6% 1160 03-24-15
43 Auriman1 38.6% 1241 03-24-15
44 James_Bertolli 36.1% 1292 03-24-15
45 teamblackarms 34.5% 1324 03-24-15
46 FuzZerd 33.9% 1337 03-24-15
47 Hunters13 33.6% 1343 03-24-15
48 Psymar 32.5% 1364 03-24-15
48 Quartz 32.5% 1364 03-24-15
50 eggFL 32.1% 1372 03-24-15
51 Cyan Ryan 31.8% 1379 03-24-15
52 GerbilSoft 30.9% 1397 03-24-15
53 elecmouse101 30.6% 1403 03-24-15
54 Thorn 30.4% 1407 03-24-15
55 Webber3000 30.2% 1412 03-24-15
56 videogamemaster777 29.8% 1420 03-24-15
57 Mo Player Banned 29.0% 1435 03-24-15
58 Turbos 28.3% 1450 03-24-15
59 Termon 27.6% 1463 03-24-15
60 Dave Cramer 26.2% 1491 03-24-15
61 Flying Fox 26.0% 1497 03-24-15
62 buddychaos0415 25.6% 1504 03-24-15
63 Mariobutch 25.5% 1506 03-24-15
64 nuckrieg 25.1% 1514 03-24-15
65 Shadow Jacky 23.9% 1539 03-24-15
66 Cream147 21.6% 1586 03-24-15
67 supersonicfan 21.3% 1592 03-24-15
68 MiStEr_ShAoLiN 21.1% 1596 03-24-15
69 NintenDan 21.0% 1598 03-24-15
70 itsPersonnal 20.8% 1601 03-24-15
71 Nimrod 20.7% 1604 03-24-15
71 The T 20.7% 1604 03-24-15
73 Cybrax 20.3% 1611 03-24-15
74 supersonic465 20.2% 1614 03-24-15
75 Aitamen 19.6% 1626 03-24-15
76 Cruizer 19.0% 1638 03-24-15
76 SonicWinDX 19.0% 1638 03-24-15
78 VMU Player Banned 18.0% 1657 03-24-15
79 Game_Complete 17.5% 1667 03-24-15
80 The Great Lord Mick 16.7% 1684 03-24-15
81 Questionguy555 15.9% 1700 03-24-15
82 GreatStar 15.8% 1702 03-24-15
83 Drakodan 15.6% 1706 03-24-15
84 Spinballwizard 15.2% 1715 03-24-15
85 Sondow 14.5% 1729 03-24-15
86 sonicandamy 14.3% 1733 03-24-15
87 GarnetPrincess 13.3% 1753 03-24-15
88 SonicAD 12.3% 1773 03-24-15
89 Don 11.4% 1791 03-24-15
90 Miles9999 11.2% 1796 03-24-15
91 Siavash Tazari 10.8% 1803 03-24-15
92 BigAL49 10.4% 1812 03-24-15
93 Werey 10.1% 1817 03-24-15
94 Psyknux 10.0% 1819 03-24-15
95 joecoolgames 9.9% 1821 03-24-15
96 Cutiefox 9.9% 1822 03-24-15
97 knuckles_sonic8 9.7% 1826 03-24-15
98 mauserman 9.4% 1832 03-24-15
99 EngiNerd 8.8% 1844 03-24-15
100 Sonic Singularity 8.6% 1847 03-24-15
101 dShadow 8.5% 1850 03-24-15
102 Hipertails12 8.3% 1855 03-24-15
103 Shanekilz 8.0% 1860 03-24-15
104 Therio 7.8% 1864 03-24-15
105 Mastakirby 7.6% 1869 03-24-15
106 chainchumper 7.2% 1877 03-24-15
107 sonic29887 7.0% 1881 03-24-15
108 TheChaosEmeraIds 6.8% 1884 03-24-15
109 FocusSight64 6.7% 1887 03-24-15
110 Chao_Fan 6.6% 1888 03-24-15
111 tal39h 6.1% 1899 03-24-15
112 djmat 6.0% 1901 03-24-15
113 paulie9990 5.8% 1905 03-24-15
114 Sogeking 5.5% 1911 03-24-15
115 Brian_pso 5.0% 1920 03-24-15
116 Chawkk 5.0% 1921 03-24-15
117 SilvertheAlmighty 4.7% 1927 03-24-15
118 MK 4.5% 1930 03-24-15
118 SpinDashMaster 4.5% 1930 03-24-15
120 MastaToken 4.3% 1934 03-24-15
121 SpiritDragon1995 3.9% 1943 03-24-15
122 Sonique Hedgehog 3.8% 1945 03-24-15
123 KinkyCadence 3.7% 1948 03-24-15
124 Mad Andy 3.5% 1951 03-24-15
125 PsyBorg 3.4% 1953 03-24-15
126 FSSRandomvids 3.2% 1957 03-24-15
127 Xia 2.9% 1963 03-24-15
128 Rolken 2.9% 1964 03-24-15
129 andres430 2.6% 1970 03-24-15
130 crazy1993 2.2% 1977 03-24-15
130 dabestgamer 2.2% 1977 03-24-15
132 shadowblast63 Player Banned 2.2% 1978 03-24-15
133 Illidan 2.1% 1980 03-24-15
134 Richied 2.0% 1981 03-24-15
135 DanielTheFalcon 1.8% 1985 03-24-15
135 gamer1245 1.8% 1985 03-24-15
137 Iwannabelink 1.8% 1986 03-24-15
138 oTaiIilLsS 1.4% 1994 03-24-15
139 soniccoloursunleashed 1.3% 1996 03-24-15
140 niscool 1.2% 1997 03-24-15
141 ieatatsonic 1.1% 2000 03-24-15
142 Redd 1.0% 2001 03-24-15
143 Lil_Dude 0.7% 2007 03-24-15
143 LinksDarkArrows 0.7% 2007 03-24-15
145 Cbwade15 0.4% 2013 03-24-15
146 neaolas 0.3% 2016 03-24-15
147 BlankTH 0.2% 2018 03-24-15
148 Heroes_Hater 0.1% 2019 03-24-15
149 S-MS32X-S 0.0% 2021 03-24-15
150 KaM Mark MaK 0.0% 2023 03-24-15
150 MegabombBlade 0.0% 2023 03-24-15

This page is using the New Data Table System. [FUTURE]

Game ID: 3 | Category ID: 6
Hits: 3,884 | Hits This Month: 26 | DB Calls: 24 | Mem Usage: 5.34 MB | Time: 0.08s | Printable

The Sonic Center v3.9
Copyright 2003-2011 by The Sonic Center Team.